sensor_id;sensor_type;location;lat;lon;timestamp;P1;durP1;ratioP1;P2;durP2;ratioP2
6693;SDS011;3384;42.628;23.380;2023-06-10T00:01:54;8.50;;;5.53;;
6693;SDS011;3384;42.628;23.380;2023-06-10T00:04:25;5.27;;;5.07;;
6693;SDS011;3384;42.628;23.380;2023-06-10T00:06:52;7.13;;;6.53;;
6693;SDS011;3384;42.628;23.380;2023-06-10T00:09:20;4.90;;;4.80;;
6693;SDS011;3384;42.628;23.380;2023-06-10T00:11:47;6.67;;;6.03;;
6693;SDS011;3384;42.628;23.380;2023-06-10T00:14:15;5.70;;;5.50;;
6693;SDS011;3384;42.628;23.380;2023-06-10T00:16:44;5.40;;;4.90;;
6693;SDS011;3384;42.628;23.380;2023-06-10T00:19:19;5.60;;;5.30;;
6693;SDS011;3384;42.628;23.380;2023-06-10T00:21:50;5.53;;;5.07;;
6693;SDS011;3384;42.628;23.380;2023-06-10T00:24:18;5.80;;;5.30;;
6693;SDS011;3384;42.628;23.380;2023-06-10T00:26:45;4.63;;;4.53;;
6693;SDS011;3384;42.628;23.380;2023-06-10T00:29:12;5.17;;;4.67;;
6693;SDS011;3384;42.628;23.380;2023-06-10T00:31:39;5.60;;;5.20;;
6693;SDS011;3384;42.628;23.380;2023-06-10T00:34:06;5.37;;;4.90;;
6693;SDS011;3384;42.628;23.380;2023-06-10T00:36:35;5.03;;;4.73;;
6693;SDS011;3384;42.628;23.380;2023-06-10T00:39:02;5.70;;;5.27;;
6693;SDS011;3384;42.628;23.380;2023-06-10T00:41:29;8.97;;;7.53;;
6693;SDS011;3384;42.628;23.380;2023-06-10T00:43:56;15.40;;;8.93;;
6693;SDS011;3384;42.628;23.380;2023-06-10T00:46:23;7.93;;;7.63;;
6693;SDS011;3384;42.628;23.380;2023-06-10T00:48:51;9.37;;;8.70;;
6693;SDS011;3384;42.628;23.380;2023-06-10T00:51:19;8.83;;;7.87;;
6693;SDS011;3384;42.628;23.380;2023-06-10T00:53:48;9.17;;;8.07;;
6693;SDS011;3384;42.628;23.380;2023-06-10T00:56:15;10.53;;;8.17;;
6693;SDS011;3384;42.628;23.380;2023-06-10T00:58:42;9.53;;;8.53;;
6693;SDS011;3384;42.628;23.380;2023-06-10T01:01:09;8.17;;;7.63;;
6693;SDS011;3384;42.628;23.380;2023-06-10T01:03:37;8.70;;;8.20;;
6693;SDS011;3384;42.628;23.380;2023-06-10T01:06:06;17.80;;;11.20;;
6693;SDS011;3384;42.628;23.380;2023-06-10T01:08:44;10.90;;;10.00;;
6693;SDS011;3384;42.628;23.380;2023-06-10T01:11:19;9.57;;;8.90;;
6693;SDS011;3384;42.628;23.380;2023-06-10T01:13:50;13.00;;;11.90;;
6693;SDS011;3384;42.628;23.380;2023-06-10T01:16:17;10.53;;;9.73;;
6693;SDS011;3384;42.628;23.380;2023-06-10T01:18:46;11.50;;;10.63;;
6693;SDS011;3384;42.628;23.380;2023-06-10T01:21:16;12.97;;;11.97;;
6693;SDS011;3384;42.628;23.380;2023-06-10T01:23:46;10.40;;;9.40;;
6693;SDS011;3384;42.628;23.380;2023-06-10T01:26:13;12.30;;;11.30;;
6693;SDS011;3384;42.628;23.380;2023-06-10T01:28:43;15.50;;;11.73;;
6693;SDS011;3384;42.628;23.380;2023-06-10T01:31:20;11.37;;;10.30;;
6693;SDS011;3384;42.628;23.380;2023-06-10T01:34:01;12.90;;;10.47;;
6693;SDS011;3384;42.628;23.380;2023-06-10T01:36:33;12.17;;;11.20;;
6693;SDS011;3384;42.628;23.380;2023-06-10T01:39:02;10.13;;;9.20;;
6693;SDS011;3384;42.628;23.380;2023-06-10T01:41:31;9.20;;;8.40;;
6693;SDS011;3384;42.628;23.380;2023-06-10T01:43:59;26.60;;;10.07;;
6693;SDS011;3384;42.628;23.380;2023-06-10T01:46:26;10.90;;;9.33;;
6693;SDS011;3384;42.628;23.380;2023-06-10T01:48:55;10.90;;;9.30;;
6693;SDS011;3384;42.628;23.380;2023-06-10T01:51:23;13.53;;;9.67;;
6693;SDS011;3384;42.628;23.380;2023-06-10T01:53:51;17.17;;;10.50;;
6693;SDS011;3384;42.628;23.380;2023-06-10T01:56:18;16.23;;;10.03;;
6693;SDS011;3384;42.628;23.380;2023-06-10T01:58:45;13.93;;;10.10;;
6693;SDS011;3384;42.628;23.380;2023-06-10T02:01:15;11.37;;;10.40;;
6693;SDS011;3384;42.628;23.380;2023-06-10T02:03:42;10.87;;;10.07;;
6693;SDS011;3384;42.628;23.380;2023-06-10T02:06:09;10.30;;;9.50;;
6693;SDS011;3384;42.628;23.380;2023-06-10T02:08:35;12.40;;;10.50;;
6693;SDS011;3384;42.628;23.380;2023-06-10T02:11:04;18.57;;;11.20;;
6693;SDS011;3384;42.628;23.380;2023-06-10T02:13:32;10.80;;;10.00;;
6693;SDS011;3384;42.628;23.380;2023-06-10T02:15:59;10.40;;;9.70;;
6693;SDS011;3384;42.628;23.380;2023-06-10T02:18:26;11.60;;;10.73;;
6693;SDS011;3384;42.628;23.380;2023-06-10T02:20:53;12.13;;;11.17;;
6693;SDS011;3384;42.628;23.380;2023-06-10T02:23:20;10.83;;;10.03;;
6693;SDS011;3384;42.628;23.380;2023-06-10T02:25:47;11.60;;;10.60;;
6693;SDS011;3384;42.628;23.380;2023-06-10T02:28:15;13.00;;;10.73;;
6693;SDS011;3384;42.628;23.380;2023-06-10T02:30:42;11.97;;;10.47;;
6693;SDS011;3384;42.628;23.380;2023-06-10T02:33:10;10.37;;;9.57;;
6693;SDS011;3384;42.628;23.380;2023-06-10T02:35:37;10.57;;;9.67;;
6693;SDS011;3384;42.628;23.380;2023-06-10T02:38:04;17.23;;;10.27;;
6693;SDS011;3384;42.628;23.380;2023-06-10T02:40:31;24.97;;;11.10;;
6693;SDS011;3384;42.628;23.380;2023-06-10T02:42:58;13.63;;;10.43;;
6693;SDS011;3384;42.628;23.380;2023-06-10T02:45:26;10.87;;;9.90;;
6693;SDS011;3384;42.628;23.380;2023-06-10T02:47:53;8.70;;;8.20;;
6693;SDS011;3384;42.628;23.380;2023-06-10T02:50:20;8.90;;;8.20;;
6693;SDS011;3384;42.628;23.380;2023-06-10T02:52:48;17.63;;;8.53;;
6693;SDS011;3384;42.628;23.380;2023-06-10T02:55:15;9.90;;;9.07;;
6693;SDS011;3384;42.628;23.380;2023-06-10T02:57:42;10.70;;;9.73;;
6693;SDS011;3384;42.628;23.380;2023-06-10T03:00:09;9.00;;;8.27;;
6693;SDS011;3384;42.628;23.380;2023-06-10T03:02:40;10.63;;;7.57;;
6693;SDS011;3384;42.628;23.380;2023-06-10T03:05:08;8.07;;;7.60;;
6693;SDS011;3384;42.628;23.380;2023-06-10T03:07:35;7.83;;;7.43;;
6693;SDS011;3384;42.628;23.380;2023-06-10T03:10:03;7.00;;;6.50;;
6693;SDS011;3384;42.628;23.380;2023-06-10T03:12:31;8.43;;;7.83;;
6693;SDS011;3384;42.628;23.380;2023-06-10T03:14:58;8.50;;;6.70;;
6693;SDS011;3384;42.628;23.380;2023-06-10T03:17:24;7.13;;;6.70;;
6693;SDS011;3384;42.628;23.380;2023-06-10T03:19:53;8.10;;;7.13;;
6693;SDS011;3384;42.628;23.380;2023-06-10T03:22:20;7.10;;;6.57;;
6693;SDS011;3384;42.628;23.380;2023-06-10T03:24:46;8.13;;;6.90;;
6693;SDS011;3384;42.628;23.380;2023-06-10T03:27:15;8.43;;;6.67;;
6693;SDS011;3384;42.628;23.380;2023-06-10T03:29:42;6.47;;;6.07;;
6693;SDS011;3384;42.628;23.380;2023-06-10T03:32:09;8.97;;;6.47;;
6693;SDS011;3384;42.628;23.380;2023-06-10T03:34:36;17.83;;;7.23;;
6693;SDS011;3384;42.628;23.380;2023-06-10T03:37:05;9.37;;;6.60;;
6693;SDS011;3384;42.628;23.380;2023-06-10T03:39:32;6.60;;;6.27;;
6693;SDS011;3384;42.628;23.380;2023-06-10T03:41:59;21.90;;;6.70;;
6693;SDS011;3384;42.628;23.380;2023-06-10T03:44:26;6.73;;;6.20;;
6693;SDS011;3384;42.628;23.380;2023-06-10T03:46:53;7.23;;;6.50;;
6693;SDS011;3384;42.628;23.380;2023-06-10T03:49:20;8.90;;;8.20;;
6693;SDS011;3384;42.628;23.380;2023-06-10T03:51:52;11.43;;;8.70;;
6693;SDS011;3384;42.628;23.380;2023-06-10T03:54:20;10.40;;;9.10;;
6693;SDS011;3384;42.628;23.380;2023-06-10T03:56:47;9.93;;;9.13;;
6693;SDS011;3384;42.628;23.380;2023-06-10T03:59:15;10.57;;;9.60;;
6693;SDS011;3384;42.628;23.380;2023-06-10T04:01:42;15.13;;;10.50;;
6693;SDS011;3384;42.628;23.380;2023-06-10T04:04:09;11.90;;;10.80;;
6693;SDS011;3384;42.628;23.380;2023-06-10T04:06:38;10.67;;;9.80;;
6693;SDS011;3384;42.628;23.380;2023-06-10T04:09:06;9.67;;;8.77;;
6693;SDS011;3384;42.628;23.380;2023-06-10T04:11:36;10.70;;;10.00;;
6693;SDS011;3384;42.628;23.380;2023-06-10T04:14:03;11.13;;;9.63;;
6693;SDS011;3384;42.628;23.380;2023-06-10T04:16:30;10.13;;;9.10;;
6693;SDS011;3384;42.628;23.380;2023-06-10T04:18:57;10.73;;;9.73;;
6693;SDS011;3384;42.628;23.380;2023-06-10T04:21:24;10.60;;;9.57;;
6693;SDS011;3384;42.628;23.380;2023-06-10T04:23:51;27.73;;;10.63;;
6693;SDS011;3384;42.628;23.380;2023-06-10T04:26:18;13.47;;;12.13;;
6693;SDS011;3384;42.628;23.380;2023-06-10T04:28:47;18.43;;;10.43;;
6693;SDS011;3384;42.628;23.380;2023-06-10T04:31:13;16.03;;;12.23;;
6693;SDS011;3384;42.628;23.380;2023-06-10T04:33:40;14.63;;;13.27;;
6693;SDS011;3384;42.628;23.380;2023-06-10T04:36:07;27.43;;;13.70;;
6693;SDS011;3384;42.628;23.380;2023-06-10T04:38:34;13.13;;;11.40;;
6693;SDS011;3384;42.628;23.380;2023-06-10T04:41:01;13.13;;;11.30;;
6693;SDS011;3384;42.628;23.380;2023-06-10T04:43:29;15.43;;;12.50;;
6693;SDS011;3384;42.628;23.380;2023-06-10T04:45:57;13.00;;;11.80;;
6693;SDS011;3384;42.628;23.380;2023-06-10T04:48:24;17.13;;;11.90;;
6693;SDS011;3384;42.628;23.380;2023-06-10T04:50:52;14.23;;;12.80;;
6693;SDS011;3384;42.628;23.380;2023-06-10T04:53:19;18.73;;;12.10;;
6693;SDS011;3384;42.628;23.380;2023-06-10T04:55:46;13.37;;;12.37;;
6693;SDS011;3384;42.628;23.380;2023-06-10T04:58:13;21.20;;;11.43;;
6693;SDS011;3384;42.628;23.380;2023-06-10T05:00:41;13.40;;;12.10;;
6693;SDS011;3384;42.628;23.380;2023-06-10T05:03:10;17.77;;;12.30;;
6693;SDS011;3384;42.628;23.380;2023-06-10T05:05:37;12.00;;;10.93;;
6693;SDS011;3384;42.628;23.380;2023-06-10T05:08:04;13.60;;;12.07;;
6693;SDS011;3384;42.628;23.380;2023-06-10T05:10:31;12.23;;;10.80;;
6693;SDS011;3384;42.628;23.380;2023-06-10T05:12:59;13.60;;;10.63;;
6693;SDS011;3384;42.628;23.380;2023-06-10T05:15:26;17.30;;;11.70;;
6693;SDS011;3384;42.628;23.380;2023-06-10T05:17:53;13.90;;;12.33;;
6693;SDS011;3384;42.628;23.380;2023-06-10T05:20:22;11.20;;;10.10;;
6693;SDS011;3384;42.628;23.380;2023-06-10T05:22:53;10.37;;;9.50;;
6693;SDS011;3384;42.628;23.380;2023-06-10T05:25:20;10.87;;;9.97;;
6693;SDS011;3384;42.628;23.380;2023-06-10T05:27:48;10.37;;;9.50;;
6693;SDS011;3384;42.628;23.380;2023-06-10T05:30:15;15.97;;;9.73;;
6693;SDS011;3384;42.628;23.380;2023-06-10T05:32:53;12.13;;;11.10;;
6693;SDS011;3384;42.628;23.380;2023-06-10T05:35:25;10.60;;;9.80;;
6693;SDS011;3384;42.628;23.380;2023-06-10T05:38:03;10.67;;;9.33;;
6693;SDS011;3384;42.628;23.380;2023-06-10T05:40:30;10.23;;;9.37;;
6693;SDS011;3384;42.628;23.380;2023-06-10T05:42:57;18.53;;;9.50;;
6693;SDS011;3384;42.628;23.380;2023-06-10T05:45:24;10.17;;;9.27;;
6693;SDS011;3384;42.628;23.380;2023-06-10T05:47:51;10.67;;;9.87;;
6693;SDS011;3384;42.628;23.380;2023-06-10T05:50:45;12.07;;;10.70;;
6693;SDS011;3384;42.628;23.380;2023-06-10T05:53:14;12.00;;;10.00;;
6693;SDS011;3384;42.628;23.380;2023-06-10T05:55:41;10.87;;;10.23;;
6693;SDS011;3384;42.628;23.380;2023-06-10T05:58:10;11.20;;;10.10;;
6693;SDS011;3384;42.628;23.380;2023-06-10T06:00:41;14.03;;;11.10;;
6693;SDS011;3384;42.628;23.380;2023-06-10T06:03:08;11.13;;;9.97;;
6693;SDS011;3384;42.628;23.380;2023-06-10T06:05:36;11.53;;;10.70;;
6693;SDS011;3384;42.628;23.380;2023-06-10T06:08:03;13.20;;;11.63;;
6693;SDS011;3384;42.628;23.380;2023-06-10T06:10:30;15.57;;;11.67;;
6693;SDS011;3384;42.628;23.380;2023-06-10T06:12:57;19.10;;;12.87;;
6693;SDS011;3384;42.628;23.380;2023-06-10T06:15:24;19.57;;;12.97;;
6693;SDS011;3384;42.628;23.380;2023-06-10T06:17:51;14.37;;;12.93;;
6693;SDS011;3384;42.628;23.380;2023-06-10T06:20:18;17.67;;;13.07;;
6693;SDS011;3384;42.628;23.380;2023-06-10T06:22:47;14.90;;;13.47;;
6693;SDS011;3384;42.628;23.380;2023-06-10T06:25:14;16.70;;;13.17;;
6693;SDS011;3384;42.628;23.380;2023-06-10T06:27:41;15.33;;;13.33;;
6693;SDS011;3384;42.628;23.380;2023-06-10T06:30:08;16.43;;;13.97;;
6693;SDS011;3384;42.628;23.380;2023-06-10T06:32:35;23.47;;;13.90;;
6693;SDS011;3384;42.628;23.380;2023-06-10T06:35:02;15.27;;;13.87;;
6693;SDS011;3384;42.628;23.380;2023-06-10T06:37:32;14.90;;;13.53;;
6693;SDS011;3384;42.628;23.380;2023-06-10T06:40:01;14.43;;;13.03;;
6693;SDS011;3384;42.628;23.380;2023-06-10T06:42:28;20.97;;;14.90;;
6693;SDS011;3384;42.628;23.380;2023-06-10T06:44:56;21.30;;;13.50;;
6693;SDS011;3384;42.628;23.380;2023-06-10T06:47:24;16.97;;;15.27;;
6693;SDS011;3384;42.628;23.380;2023-06-10T06:49:51;27.47;;;15.80;;
6693;SDS011;3384;42.628;23.380;2023-06-10T06:52:20;16.50;;;14.90;;
6693;SDS011;3384;42.628;23.380;2023-06-10T06:54:48;18.13;;;14.40;;
6693;SDS011;3384;42.628;23.380;2023-06-10T06:57:19;22.87;;;16.53;;
6693;SDS011;3384;42.628;23.380;2023-06-10T06:59:45;17.03;;;15.03;;
6693;SDS011;3384;42.628;23.380;2023-06-10T07:02:12;19.70;;;17.17;;
6693;SDS011;3384;42.628;23.380;2023-06-10T07:04:39;17.30;;;15.53;;
6693;SDS011;3384;42.628;23.380;2023-06-10T07:07:07;19.87;;;14.93;;
6693;SDS011;3384;42.628;23.380;2023-06-10T07:09:34;23.17;;;15.20;;
6693;SDS011;3384;42.628;23.380;2023-06-10T07:12:01;20.37;;;13.53;;
6693;SDS011;3384;42.628;23.380;2023-06-10T07:14:34;15.43;;;13.53;;
6693;SDS011;3384;42.628;23.380;2023-06-10T07:17:01;16.13;;;12.80;;
6693;SDS011;3384;42.628;23.380;2023-06-10T07:19:28;14.83;;;13.47;;
6693;SDS011;3384;42.628;23.380;2023-06-10T07:21:55;16.53;;;12.50;;
6693;SDS011;3384;42.628;23.380;2023-06-10T07:24:21;13.57;;;12.27;;
6693;SDS011;3384;42.628;23.380;2023-06-10T07:26:48;16.30;;;13.30;;
6693;SDS011;3384;42.628;23.380;2023-06-10T07:29:15;13.37;;;12.07;;
6693;SDS011;3384;42.628;23.380;2023-06-10T07:31:43;12.43;;;11.33;;
6693;SDS011;3384;42.628;23.380;2023-06-10T07:34:10;13.30;;;11.97;;
6693;SDS011;3384;42.628;23.380;2023-06-10T07:36:37;10.10;;;9.10;;
6693;SDS011;3384;42.628;23.380;2023-06-10T07:39:04;9.73;;;8.63;;
6693;SDS011;3384;42.628;23.380;2023-06-10T07:41:32;10.50;;;9.13;;
6693;SDS011;3384;42.628;23.380;2023-06-10T07:43:59;9.37;;;8.57;;
6693;SDS011;3384;42.628;23.380;2023-06-10T07:46:25;9.73;;;8.47;;
6693;SDS011;3384;42.628;23.380;2023-06-10T07:48:54;7.83;;;7.13;;
6693;SDS011;3384;42.628;23.380;2023-06-10T07:51:21;8.53;;;7.30;;
6693;SDS011;3384;42.628;23.380;2023-06-10T07:53:50;8.77;;;8.17;;
6693;SDS011;3384;42.628;23.380;2023-06-10T07:56:17;8.83;;;6.30;;
6693;SDS011;3384;42.628;23.380;2023-06-10T07:58:45;5.80;;;5.50;;
6693;SDS011;3384;42.628;23.380;2023-06-10T08:01:12;6.53;;;5.83;;
6693;SDS011;3384;42.628;23.380;2023-06-10T08:03:41;6.00;;;5.70;;
6693;SDS011;3384;42.628;23.380;2023-06-10T08:06:12;8.10;;;6.07;;
6693;SDS011;3384;42.628;23.380;2023-06-10T08:08:39;5.27;;;5.00;;
6693;SDS011;3384;42.628;23.380;2023-06-10T08:11:08;8.73;;;5.57;;
6693;SDS011;3384;42.628;23.380;2023-06-10T08:13:35;6.77;;;5.30;;
6693;SDS011;3384;42.628;23.380;2023-06-10T08:16:01;4.77;;;4.40;;
6693;SDS011;3384;42.628;23.380;2023-06-10T08:18:29;6.13;;;5.40;;
6693;SDS011;3384;42.628;23.380;2023-06-10T08:20:55;10.33;;;5.70;;
6693;SDS011;3384;42.628;23.380;2023-06-10T08:23:24;5.80;;;5.37;;
6693;SDS011;3384;42.628;23.380;2023-06-10T08:25:51;8.23;;;7.40;;
6693;SDS011;3384;42.628;23.380;2023-06-10T08:28:20;11.57;;;5.57;;
6693;SDS011;3384;42.628;23.380;2023-06-10T08:30:46;6.53;;;5.97;;
6693;SDS011;3384;42.628;23.380;2023-06-10T08:33:13;5.33;;;4.93;;
6693;SDS011;3384;42.628;23.380;2023-06-10T08:35:40;6.00;;;5.50;;
6693;SDS011;3384;42.628;23.380;2023-06-10T08:38:07;5.37;;;4.97;;
6693;SDS011;3384;42.628;23.380;2023-06-10T08:40:35;5.93;;;5.47;;
6693;SDS011;3384;42.628;23.380;2023-06-10T08:43:04;8.97;;;5.43;;
6693;SDS011;3384;42.628;23.380;2023-06-10T08:45:34;4.90;;;4.60;;
6693;SDS011;3384;42.628;23.380;2023-06-10T08:48:04;4.97;;;4.77;;
6693;SDS011;3384;42.628;23.380;2023-06-10T08:50:33;8.43;;;4.87;;
6693;SDS011;3384;42.628;23.380;2023-06-10T08:53:02;4.93;;;3.13;;
6693;SDS011;3384;42.628;23.380;2023-06-10T08:55:32;3.00;;;2.73;;
6693;SDS011;3384;42.628;23.380;2023-06-10T08:58:02;23.70;;;3.70;;
6693;SDS011;3384;42.628;23.380;2023-06-10T09:00:29;2.80;;;2.70;;
6693;SDS011;3384;42.628;23.380;2023-06-10T09:02:57;3.83;;;2.33;;
6693;SDS011;3384;42.628;23.380;2023-06-10T09:05:25;2.77;;;2.67;;
6693;SDS011;3384;42.628;23.380;2023-06-10T09:07:59;3.30;;;3.00;;
6693;SDS011;3384;42.628;23.380;2023-06-10T09:10:27;3.07;;;2.87;;
6693;SDS011;3384;42.628;23.380;2023-06-10T09:12:57;5.80;;;2.63;;
6693;SDS011;3384;42.628;23.380;2023-06-10T09:15:26;3.10;;;2.80;;
6693;SDS011;3384;42.628;23.380;2023-06-10T09:17:53;2.67;;;2.57;;
6693;SDS011;3384;42.628;23.380;2023-06-10T09:20:23;2.83;;;2.63;;
6693;SDS011;3384;42.628;23.380;2023-06-10T09:22:52;3.50;;;3.20;;
6693;SDS011;3384;42.628;23.380;2023-06-10T09:25:20;2.77;;;2.67;;
6693;SDS011;3384;42.628;23.380;2023-06-10T09:28:01;3.47;;;3.23;;
6693;SDS011;3384;42.628;23.380;2023-06-10T09:30:30;3.20;;;2.93;;
6693;SDS011;3384;42.628;23.380;2023-06-10T09:32:58;3.70;;;3.40;;
6693;SDS011;3384;42.628;23.380;2023-06-10T09:35:27;7.90;;;3.60;;
6693;SDS011;3384;42.628;23.380;2023-06-10T09:37:55;7.10;;;3.20;;
6693;SDS011;3384;42.628;23.380;2023-06-10T09:40:23;3.67;;;3.47;;
6693;SDS011;3384;42.628;23.380;2023-06-10T09:42:53;5.50;;;3.00;;
6693;SDS011;3384;42.628;23.380;2023-06-10T09:45:21;11.67;;;3.33;;
6693;SDS011;3384;42.628;23.380;2023-06-10T09:47:56;4.60;;;3.00;;
6693;SDS011;3384;42.628;23.380;2023-06-10T09:50:26;2.80;;;2.60;;
6693;SDS011;3384;42.628;23.380;2023-06-10T09:52:54;3.33;;;3.13;;
6693;SDS011;3384;42.628;23.380;2023-06-10T09:55:20;3.00;;;2.53;;
6693;SDS011;3384;42.628;23.380;2023-06-10T09:57:49;4.50;;;2.70;;
6693;SDS011;3384;42.628;23.380;2023-06-10T10:00:16;2.83;;;2.73;;
6693;SDS011;3384;42.628;23.380;2023-06-10T10:02:45;3.83;;;3.33;;
6693;SDS011;3384;42.628;23.380;2023-06-10T10:05:17;5.77;;;3.63;;
6693;SDS011;3384;42.628;23.380;2023-06-10T10:07:48;4.40;;;3.10;;
6693;SDS011;3384;42.628;23.380;2023-06-10T10:10:18;4.13;;;2.87;;
6693;SDS011;3384;42.628;23.380;2023-06-10T10:12:51;4.20;;;3.90;;
6693;SDS011;3384;42.628;23.380;2023-06-10T10:15:22;5.57;;;3.70;;
6693;SDS011;3384;42.628;23.380;2023-06-10T10:17:58;3.30;;;3.10;;
6693;SDS011;3384;42.628;23.380;2023-06-10T10:20:32;3.83;;;3.63;;
6693;SDS011;3384;42.628;23.380;2023-06-10T10:23:03;2.80;;;2.70;;
6693;SDS011;3384;42.628;23.380;2023-06-10T10:25:35;3.30;;;3.00;;
6693;SDS011;3384;42.628;23.380;2023-06-10T10:28:06;3.23;;;3.03;;
6693;SDS011;3384;42.628;23.380;2023-06-10T10:30:37;6.50;;;3.87;;
6693;SDS011;3384;42.628;23.380;2023-06-10T10:33:16;6.57;;;3.83;;
6693;SDS011;3384;42.628;23.380;2023-06-10T10:35:48;4.47;;;3.40;;
6693;SDS011;3384;42.628;23.380;2023-06-10T10:38:17;3.50;;;3.30;;
6693;SDS011;3384;42.628;23.380;2023-06-10T10:40:47;4.33;;;3.73;;
6693;SDS011;3384;42.628;23.380;2023-06-10T10:43:16;4.07;;;3.87;;
6693;SDS011;3384;42.628;23.380;2023-06-10T10:45:45;4.50;;;3.70;;
6693;SDS011;3384;42.628;23.380;2023-06-10T10:50:59;2.67;;;2.50;;
6693;SDS011;3384;42.628;23.380;2023-06-10T10:53:26;5.83;;;2.97;;
6693;SDS011;3384;42.628;23.380;2023-06-10T10:56:04;2.17;;;2.07;;
6693;SDS011;3384;42.628;23.380;2023-06-10T10:58:32;2.90;;;1.93;;
6693;SDS011;3384;42.628;23.380;2023-06-10T11:01:00;3.67;;;3.37;;
6693;SDS011;3384;42.628;23.380;2023-06-10T11:03:41;2.73;;;2.63;;
6693;SDS011;3384;42.628;23.380;2023-06-10T11:06:13;2.50;;;2.40;;
6693;SDS011;3384;42.628;23.380;2023-06-10T11:08:48;4.57;;;2.70;;
6693;SDS011;3384;42.628;23.380;2023-06-10T11:11:19;2.40;;;1.90;;
6693;SDS011;3384;42.628;23.380;2023-06-10T11:16:38;2.60;;;2.40;;
6693;SDS011;3384;42.628;23.380;2023-06-10T11:19:07;5.03;;;3.20;;
6693;SDS011;3384;42.628;23.380;2023-06-10T11:21:38;3.00;;;2.80;;
6693;SDS011;3384;42.628;23.380;2023-06-10T11:24:24;2.90;;;2.80;;
6693;SDS011;3384;42.628;23.380;2023-06-10T11:26:51;3.10;;;2.90;;
6693;SDS011;3384;42.628;23.380;2023-06-10T11:29:18;2.90;;;2.80;;
6693;SDS011;3384;42.628;23.380;2023-06-10T11:31:48;5.00;;;3.60;;
6693;SDS011;3384;42.628;23.380;2023-06-10T11:34:21;6.30;;;2.77;;
6693;SDS011;3384;42.628;23.380;2023-06-10T11:36:54;3.73;;;3.17;;
6693;SDS011;3384;42.628;23.380;2023-06-10T11:39:21;3.60;;;2.47;;
6693;SDS011;3384;42.628;23.380;2023-06-10T11:41:51;8.40;;;3.00;;
6693;SDS011;3384;42.628;23.380;2023-06-10T11:44:18;3.77;;;2.40;;
6693;SDS011;3384;42.628;23.380;2023-06-10T11:46:46;2.70;;;2.50;;
6693;SDS011;3384;42.628;23.380;2023-06-10T11:49:14;2.30;;;2.13;;
6693;SDS011;3384;42.628;23.380;2023-06-10T11:51:41;2.00;;;1.90;;
6693;SDS011;3384;42.628;23.380;2023-06-10T11:54:18;4.27;;;2.67;;
6693;SDS011;3384;42.628;23.380;2023-06-10T11:56:45;3.63;;;2.63;;
6693;SDS011;3384;42.628;23.380;2023-06-10T11:59:12;7.60;;;3.33;;
6693;SDS011;3384;42.628;23.380;2023-06-10T12:01:42;2.53;;;2.33;;
6693;SDS011;3384;42.628;23.380;2023-06-10T12:04:10;2.70;;;2.60;;
6693;SDS011;3384;42.628;23.380;2023-06-10T12:06:38;3.07;;;2.97;;
6693;SDS011;3384;42.628;23.380;2023-06-10T12:09:17;4.40;;;2.63;;
6693;SDS011;3384;42.628;23.380;2023-06-10T12:11:45;6.83;;;2.60;;
6693;SDS011;3384;42.628;23.380;2023-06-10T12:14:15;3.97;;;2.30;;
6693;SDS011;3384;42.628;23.380;2023-06-10T12:16:48;2.80;;;2.33;;
6693;SDS011;3384;42.628;23.380;2023-06-10T12:19:15;3.50;;;3.40;;
6693;SDS011;3384;42.628;23.380;2023-06-10T12:21:42;2.00;;;1.90;;
6693;SDS011;3384;42.628;23.380;2023-06-10T12:24:10;2.73;;;2.50;;
6693;SDS011;3384;42.628;23.380;2023-06-10T12:26:42;3.13;;;3.03;;
6693;SDS011;3384;42.628;23.380;2023-06-10T12:29:21;2.83;;;2.70;;
6693;SDS011;3384;42.628;23.380;2023-06-10T12:31:59;3.03;;;2.83;;
6693;SDS011;3384;42.628;23.380;2023-06-10T12:34:35;2.37;;;2.27;;
6693;SDS011;3384;42.628;23.380;2023-06-10T12:37:03;5.90;;;2.30;;
6693;SDS011;3384;42.628;23.380;2023-06-10T12:39:31;2.80;;;2.70;;
6693;SDS011;3384;42.628;23.380;2023-06-10T12:42:00;2.53;;;2.43;;
6693;SDS011;3384;42.628;23.380;2023-06-10T12:44:31;3.13;;;3.03;;
6693;SDS011;3384;42.628;23.380;2023-06-10T12:46:59;2.50;;;2.40;;
6693;SDS011;3384;42.628;23.380;2023-06-10T12:49:26;2.37;;;2.27;;
6693;SDS011;3384;42.628;23.380;2023-06-10T12:51:53;3.30;;;3.00;;
6693;SDS011;3384;42.628;23.380;2023-06-10T12:54:21;21.83;;;3.20;;
6693;SDS011;3384;42.628;23.380;2023-06-10T12:56:48;3.67;;;2.70;;
6693;SDS011;3384;42.628;23.380;2023-06-10T12:59:16;3.23;;;2.93;;
6693;SDS011;3384;42.628;23.380;2023-06-10T13:01:43;4.77;;;2.40;;
6693;SDS011;3384;42.628;23.380;2023-06-10T13:04:10;3.10;;;2.83;;
6693;SDS011;3384;42.628;23.380;2023-06-10T13:06:37;2.13;;;2.03;;
6693;SDS011;3384;42.628;23.380;2023-06-10T13:09:07;3.93;;;3.70;;
6693;SDS011;3384;42.628;23.380;2023-06-10T13:11:34;3.23;;;3.13;;
6693;SDS011;3384;42.628;23.380;2023-06-10T13:14:02;3.57;;;3.47;;
6693;SDS011;3384;42.628;23.380;2023-06-10T13:16:32;6.37;;;3.83;;
6693;SDS011;3384;42.628;23.380;2023-06-10T13:18:59;3.00;;;2.80;;
6693;SDS011;3384;42.628;23.380;2023-06-10T13:21:27;2.80;;;2.70;;
6693;SDS011;3384;42.628;23.380;2023-06-10T13:23:54;3.37;;;2.57;;
6693;SDS011;3384;42.628;23.380;2023-06-10T13:26:21;3.33;;;3.03;;
6693;SDS011;3384;42.628;23.380;2023-06-10T13:28:48;2.80;;;2.70;;
6693;SDS011;3384;42.628;23.380;2023-06-10T13:31:15;3.23;;;2.70;;
6693;SDS011;3384;42.628;23.380;2023-06-10T13:33:44;6.07;;;2.80;;
6693;SDS011;3384;42.628;23.380;2023-06-10T13:36:12;2.80;;;2.70;;
6693;SDS011;3384;42.628;23.380;2023-06-10T13:38:39;3.10;;;3.00;;
6693;SDS011;3384;42.628;23.380;2023-06-10T13:41:05;3.03;;;2.93;;
6693;SDS011;3384;42.628;23.380;2023-06-10T13:43:32;3.43;;;3.30;;
6693;SDS011;3384;42.628;23.380;2023-06-10T13:45:59;3.03;;;2.93;;
6693;SDS011;3384;42.628;23.380;2023-06-10T13:48:26;3.40;;;3.20;;
6693;SDS011;3384;42.628;23.380;2023-06-10T13:50:54;6.33;;;3.33;;
6693;SDS011;3384;42.628;23.380;2023-06-10T13:53:21;6.10;;;5.23;;
6693;SDS011;3384;42.628;23.380;2023-06-10T13:55:48;7.63;;;3.33;;
6693;SDS011;3384;42.628;23.380;2023-06-10T13:58:15;4.17;;;3.90;;
6693;SDS011;3384;42.628;23.380;2023-06-10T14:00:42;6.50;;;3.37;;
6693;SDS011;3384;42.628;23.380;2023-06-10T14:03:08;3.87;;;3.57;;
6693;SDS011;3384;42.628;23.380;2023-06-10T14:05:35;5.33;;;3.33;;
6693;SDS011;3384;42.628;23.380;2023-06-10T14:08:04;3.27;;;3.17;;
6693;SDS011;3384;42.628;23.380;2023-06-10T14:10:31;9.53;;;3.33;;
6693;SDS011;3384;42.628;23.380;2023-06-10T14:12:58;3.70;;;3.57;;
6693;SDS011;3384;42.628;23.380;2023-06-10T14:15:25;3.93;;;3.63;;
6693;SDS011;3384;42.628;23.380;2023-06-10T14:17:53;3.73;;;3.53;;
6693;SDS011;3384;42.628;23.380;2023-06-10T14:20:20;5.33;;;3.67;;
6693;SDS011;3384;42.628;23.380;2023-06-10T14:22:46;3.20;;;3.10;;
6693;SDS011;3384;42.628;23.380;2023-06-10T14:25:15;5.00;;;4.30;;
6693;SDS011;3384;42.628;23.380;2023-06-10T14:27:42;3.67;;;3.57;;
6693;SDS011;3384;42.628;23.380;2023-06-10T14:30:09;3.17;;;2.97;;
6693;SDS011;3384;42.628;23.380;2023-06-10T14:32:37;5.67;;;3.80;;
6693;SDS011;3384;42.628;23.380;2023-06-10T14:35:04;3.70;;;3.57;;
6693;SDS011;3384;42.628;23.380;2023-06-10T14:37:31;3.77;;;3.67;;
6693;SDS011;3384;42.628;23.380;2023-06-10T14:39:58;3.70;;;3.53;;
6693;SDS011;3384;42.628;23.380;2023-06-10T14:42:26;3.57;;;3.37;;
6693;SDS011;3384;42.628;23.380;2023-06-10T14:44:53;4.17;;;3.97;;
6693;SDS011;3384;42.628;23.380;2023-06-10T14:47:19;7.40;;;4.10;;
6693;SDS011;3384;42.628;23.380;2023-06-10T14:49:46;3.93;;;3.80;;
6693;SDS011;3384;42.628;23.380;2023-06-10T14:52:13;5.37;;;3.07;;
6693;SDS011;3384;42.628;23.380;2023-06-10T14:54:40;3.53;;;3.20;;
6693;SDS011;3384;42.628;23.380;2023-06-10T14:57:07;4.20;;;3.00;;
6693;SDS011;3384;42.628;23.380;2023-06-10T14:59:37;3.43;;;2.70;;
6693;SDS011;3384;42.628;23.380;2023-06-10T15:02:05;3.00;;;2.90;;
6693;SDS011;3384;42.628;23.380;2023-06-10T15:04:34;3.50;;;3.40;;
6693;SDS011;3384;42.628;23.380;2023-06-10T15:07:03;3.50;;;3.30;;